Time;durP1;ratioP1;P1;durP2;ratioP2;P2;SDS_P1;SDS_P2;PMS_P1;PMS_P2;Temp;Humidity;BMP_temperature;BMP_pressure;BME280_temperature;BME280_humidity;BME280_pressure;Samples;Min_cycle;Max_cycle;Signal;HPM_P1;HPM_P2
2023/12/08 00:02:07;;;;;;;15.17;14.57;;;3.10;99.90;;;;;;5072859;28;20650;-69
2023/12/08 00:04:35;;;;;;;15.77;15.07;;;3.00;99.90;;;;;;5073228;28;20211;-68
2023/12/08 00:07:02;;;;;;;15.53;14.93;;;2.80;99.90;;;;;;5072913;28;20804;-67
2023/12/08 00:09:29;;;;;;;14.60;14.00;;;2.70;99.90;;;;;;5071908;28;20211;-68
2023/12/08 00:11:56;;;;;;;14.77;14.17;;;2.70;99.90;;;;;;5072488;28;20268;-66
2023/12/08 00:14:22;;;;;;;14.43;13.83;;;2.80;99.90;;;;;;5072253;28;20215;-67
2023/12/08 00:16:49;;;;;;;14.70;14.10;;;2.90;99.90;;;;;;5072155;28;20231;-67
2023/12/08 00:19:16;;;;;;;14.33;13.73;;;2.90;99.90;;;;;;5070907;28;20215;-66
2023/12/08 00:21:44;;;;;;;13.40;12.90;;;3.00;99.90;;;;;;5071863;28;20241;-67
2023/12/08 00:24:11;;;;;;;14.40;13.80;;;3.00;99.90;;;;;;5071643;28;20207;-67
2023/12/08 00:26:38;;;;;;;15.63;14.97;;;3.00;99.90;;;;;;5071460;28;20709;-68
2023/12/08 00:29:04;;;;;;;15.03;14.43;;;3.00;99.90;;;;;;5071544;28;20692;-69
2023/12/08 00:31:31;;;;;;;14.30;13.70;;;3.00;99.90;;;;;;5071640;28;20678;-67
2023/12/08 00:33:58;;;;;;;13.80;13.30;;;3.10;99.90;;;;;;5073572;28;20211;-66
2023/12/08 00:36:25;;;;;;;13.43;12.93;;;3.10;99.90;;;;;;5073591;28;20227;-69
2023/12/08 00:38:54;;;;;;;15.20;14.60;;;3.20;99.90;;;;;;5073535;28;20207;-68
2023/12/08 00:41:20;;;;;;;14.00;13.40;;;3.20;99.90;;;;;;5073359;28;20314;-69
2023/12/08 00:43:47;;;;;;;14.70;14.10;;;3.20;99.90;;;;;;5074173;28;20207;-67
2023/12/08 00:46:16;;;;;;;13.63;13.03;;;3.20;99.90;;;;;;5074327;28;20231;-68
2023/12/08 00:48:43;;;;;;;14.30;13.70;;;3.10;99.90;;;;;;5072289;28;20629;-68
2023/12/08 00:51:12;;;;;;;14.63;14.03;;;3.10;99.90;;;;;;5071668;28;20214;-68
2023/12/08 00:53:38;;;;;;;14.57;13.97;;;3.00;99.90;;;;;;5071568;28;20226;-67
2023/12/08 00:56:07;;;;;;;13.77;13.27;;;3.10;99.90;;;;;;5071695;28;20234;-67
2023/12/08 00:58:34;;;;;;;14.70;14.10;;;3.10;99.90;;;;;;5071774;28;20234;-68
2023/12/08 01:01:01;;;;;;;14.97;14.37;;;3.00;99.90;;;;;;5071129;28;20231;-68
2023/12/08 01:03:28;;;;;;;14.67;14.07;;;3.00;99.90;;;;;;5071793;28;20227;-67
2023/12/08 01:05:55;;;;;;;13.50;13.00;;;3.00;99.90;;;;;;5071569;28;20281;-67
2023/12/08 01:08:21;;;;;;;14.10;13.60;;;3.00;99.90;;;;;;5072203;28;20211;-68
2023/12/08 01:10:48;;;;;;;14.50;13.90;;;3.00;99.90;;;;;;5072117;28;20231;-70
2023/12/08 01:13:16;;;;;;;14.07;13.47;;;3.10;99.90;;;;;;5071736;28;20222;-68
2023/12/08 01:15:43;;;;;;;13.67;13.17;;;3.10;99.90;;;;;;5071142;28;20318;-69
2023/12/08 01:18:09;;;;;;;13.80;13.30;;;3.10;99.90;;;;;;5071094;28;20218;-68
2023/12/08 01:20:37;;;;;;;14.27;13.67;;;3.00;99.90;;;;;;5071750;28;20238;-68
2023/12/08 01:23:03;;;;;;;13.70;13.20;;;3.00;99.90;;;;;;5075040;28;20625;-68
2023/12/08 01:25:30;;;;;;;15.07;14.40;;;3.00;99.90;;;;;;5074883;28;20245;-67
2023/12/08 01:27:57;;;;;;;14.43;13.83;;;3.10;99.90;;;;;;5074785;28;20226;-69
2023/12/08 01:30:25;;;;;;;15.30;14.70;;;3.10;99.90;;;;;;5075222;28;20639;-69
2023/12/08 01:32:51;;;;;;;13.93;13.43;;;3.10;99.90;;;;;;5074699;28;20207;-69
2023/12/08 01:35:18;;;;;;;14.00;13.50;;;3.00;99.90;;;;;;5073889;28;20238;-67
2023/12/08 01:37:45;;;;;;;14.37;13.83;;;3.00;99.90;;;;;;5082908;28;20203;-68
2023/12/08 01:40:12;;;;;;;13.73;13.23;;;3.00;99.90;;;;;;5075079;28;20223;-69
2023/12/08 01:42:39;;;;;;;14.60;14.00;;;3.00;99.90;;;;;;5075062;28;20211;-68
2023/12/08 01:45:08;;;;;;;14.47;13.87;;;3.00;99.90;;;;;;5074849;28;20724;-67
2023/12/08 01:47:37;;;;;;;13.93;13.43;;;3.00;99.90;;;;;;5075875;28;20870;-68
2023/12/08 01:50:05;;;;;;;14.63;14.03;;;3.00;99.90;;;;;;5076427;28;20211;-68
2023/12/08 01:52:32;;;;;;;14.37;13.83;;;3.10;99.90;;;;;;5079374;28;20215;-67
2023/12/08 01:55:00;;;;;;;13.97;13.40;;;3.10;99.90;;;;;;5078726;28;20250;-66
2023/12/08 01:57:26;;;;;;;13.40;12.90;;;3.10;99.90;;;;;;5078672;28;20235;-67
2023/12/08 01:59:54;;;;;;;13.33;12.83;;;3.10;99.90;;;;;;5077909;28;20740;-68
2023/12/08 02:02:21;;;;;;;13.83;13.33;;;3.20;99.90;;;;;;5076759;28;20207;-69
2023/12/08 02:04:50;;;;;;;14.40;13.80;;;3.20;99.90;;;;;;5076927;28;20211;-68
2023/12/08 02:07:17;;;;;;;15.37;14.77;;;3.20;99.90;;;;;;5076982;28;20246;-68
2023/12/08 02:09:44;;;;;;;15.37;14.77;;;3.20;99.90;;;;;;5076759;28;20306;-66
2023/12/08 02:12:11;;;;;;;14.40;13.90;;;3.10;99.90;;;;;;5075726;28;20207;-68
2023/12/08 02:14:37;;;;;;;14.23;13.73;;;3.00;99.90;;;;;;5075582;28;20238;-68
2023/12/08 02:17:12;;;;;;;14.07;13.53;;;3.00;99.90;;;;;;5074068;28;20227;-68
2023/12/08 02:19:39;;;;;;;13.80;13.30;;;3.00;99.90;;;;;;5074056;28;20199;-69
2023/12/08 02:22:07;;;;;;;13.77;13.27;;;3.10;99.90;;;;;;5073552;28;20730;-69
2023/12/08 02:24:35;;;;;;;13.20;12.70;;;3.20;99.90;;;;;;5074126;28;20616;-69
2023/12/08 02:27:02;;;;;;;13.47;12.97;;;3.10;99.90;;;;;;5073757;28;20231;-67
2023/12/08 02:29:29;;;;;;;14.20;13.70;;;3.30;99.90;;;;;;5073777;28;20214;-69
2023/12/08 02:32:01;;;;;;;12.43;11.93;;;3.30;99.90;;;;;;5073067;28;20657;-66
2023/12/08 02:34:29;;;;;;;13.33;12.83;;;3.40;99.90;;;;;;5073447;28;20853;-68
2023/12/08 02:36:57;;;;;;;13.37;12.87;;;3.40;99.90;;;;;;5073741;28;20597;-69
2023/12/08 02:39:25;;;;;;;13.57;13.07;;;3.40;99.90;;;;;;5073353;28;20689;-69
2023/12/08 02:41:54;;;;;;;13.27;12.77;;;3.40;99.90;;;;;;5073538;28;20773;-68
2023/12/08 02:44:20;;;;;;;13.40;12.90;;;3.40;99.90;;;;;;5072248;28;20585;-68
2023/12/08 02:46:47;;;;;;;12.90;12.40;;;3.40;99.90;;;;;;5072537;28;20235;-68
2023/12/08 02:49:14;;;;;;;12.77;12.27;;;3.40;99.90;;;;;;5072354;28;20218;-67
2023/12/08 02:51:41;;;;;;;13.10;12.60;;;3.40;99.90;;;;;;5072379;28;20227;-68
2023/12/08 02:54:07;;;;;;;12.20;11.77;;;3.40;99.90;;;;;;5073135;28;20215;-67
2023/12/08 02:56:34;;;;;;;13.30;12.80;;;3.40;99.90;;;;;;5074623;28;20224;-67
2023/12/08 02:59:02;;;;;;;13.13;12.63;;;3.50;99.90;;;;;;5073564;28;20203;-67
2023/12/08 03:01:29;;;;;;;12.03;11.60;;;3.50;99.90;;;;;;5073513;28;20239;-67
2023/12/08 03:03:55;;;;;;;12.20;11.70;;;3.50;99.90;;;;;;5072882;28;20203;-67
2023/12/08 03:06:22;;;;;;;12.47;11.97;;;3.60;99.90;;;;;;5068623;28;20239;-69
2023/12/08 03:08:49;;;;;;;12.03;11.57;;;3.70;99.90;;;;;;5067620;28;20602;-68
2023/12/08 03:11:15;;;;;;;11.90;11.50;;;3.70;99.90;;;;;;5071796;28;20211;-69
2023/12/08 03:13:42;;;;;;;11.83;11.37;;;3.80;99.90;;;;;;5071864;28;20211;-67
2023/12/08 03:16:10;;;;;;;11.73;11.33;;;3.80;99.90;;;;;;5071972;28;20263;-67
2023/12/08 03:18:37;;;;;;;11.80;11.40;;;3.80;99.90;;;;;;5071857;28;20303;-67
2023/12/08 03:21:04;;;;;;;12.37;11.87;;;3.80;99.90;;;;;;5071560;28;20725;-68
2023/12/08 03:23:31;;;;;;;11.03;10.63;;;3.90;99.90;;;;;;5063421;28;20208;-68
2023/12/08 03:25:58;;;;;;;11.50;11.10;;;3.80;99.90;;;;;;5063193;28;20327;-68
2023/12/08 03:28:24;;;;;;;11.97;11.57;;;3.90;99.90;;;;;;5071817;28;20207;-68
2023/12/08 03:30:51;;;;;;;11.33;10.93;;;3.80;99.90;;;;;;5063534;28;20203;-69
2023/12/08 03:33:19;;;;;;;11.83;11.43;;;3.90;99.90;;;;;;5071388;28;20218;-66
2023/12/08 03:35:46;;;;;;;11.60;11.20;;;3.80;99.90;;;;;;5071684;28;20234;-67
2023/12/08 03:38:12;;;;;;;11.53;11.13;;;3.80;99.90;;;;;;5063175;28;20303;-68
2023/12/08 03:40:39;;;;;;;11.77;11.37;;;3.80;99.90;;;;;;5072887;28;20227;-68
2023/12/08 03:43:06;;;;;;;12.07;11.67;;;3.70;99.90;;;;;;5079963;28;20210;-67
2023/12/08 03:45:32;;;;;;;12.47;12.00;;;3.70;99.90;;;;;;5079521;28;20211;-69
2023/12/08 03:47:59;;;;;;;12.70;12.20;;;3.70;99.90;;;;;;5076616;28;20646;-69
2023/12/08 03:50:27;;;;;;;13.90;13.40;;;3.70;99.90;;;;;;5073915;28;20219;-66
2023/12/08 03:52:55;;;;;;;13.63;13.13;;;3.70;99.90;;;;;;5082637;28;20211;-67
2023/12/08 03:55:21;;;;;;;13.57;13.07;;;3.70;99.90;;;;;;5079441;28;20211;-69
2023/12/08 03:57:49;;;;;;;12.10;11.70;;;3.70;99.90;;;;;;5067902;28;20678;-69
2023/12/08 04:00:17;;;;;;;12.47;11.97;;;3.60;99.90;;;;;;5071442;28;20211;-66
2023/12/08 04:02:43;;;;;;;13.07;12.57;;;3.70;99.90;;;;;;5071785;28;20209;-67
2023/12/08 04:05:11;;;;;;;12.90;12.40;;;3.70;99.90;;;;;;5071562;28;20207;-68
2023/12/08 04:07:39;;;;;;;13.50;13.00;;;3.70;99.90;;;;;;5071286;28;20280;-68
2023/12/08 04:10:06;;;;;;;13.97;13.47;;;3.70;99.90;;;;;;5071106;28;20222;-67
2023/12/08 04:12:33;;;;;;;13.83;13.33;;;3.80;99.90;;;;;;5071818;28;20635;-67
2023/12/08 04:15:00;;;;;;;13.13;12.63;;;3.80;99.90;;;;;;5071561;28;20214;-69
2023/12/08 04:17:26;;;;;;;13.60;13.10;;;3.80;99.90;;;;;;5071239;28;20230;-68
2023/12/08 04:19:53;;;;;;;13.43;12.93;;;3.80;99.90;;;;;;5071791;28;20211;-67
2023/12/08 04:22:20;;;;;;;13.80;13.30;;;3.90;99.90;;;;;;5071054;28;20227;-67
2023/12/08 04:24:48;;;;;;;14.20;13.70;;;3.90;99.90;;;;;;5071699;28;20241;-68
2023/12/08 04:27:15;;;;;;;13.80;13.30;;;3.90;99.90;;;;;;5068960;28;20234;-69
2023/12/08 04:29:42;;;;;;;13.93;13.43;;;3.90;99.90;;;;;;5065615;28;20259;-69
2023/12/08 04:32:08;;;;;;;14.07;13.57;;;3.90;99.90;;;;;;5071127;28;20688;-67
2023/12/08 04:34:35;;;;;;;13.17;12.67;;;4.00;99.90;;;;;;5070926;28;20222;-67
2023/12/08 04:37:02;;;;;;;14.00;13.50;;;4.00;99.90;;;;;;5071594;28;20337;-67
2023/12/08 04:39:28;;;;;;;13.80;13.30;;;4.00;99.90;;;;;;5075406;28;20242;-72
2023/12/08 04:41:57;;;;;;;13.77;13.27;;;4.10;99.90;;;;;;5079576;28;20231;-69
2023/12/08 04:44:22;;;;;;;13.53;13.03;;;4.10;99.90;;;;;;5082320;28;20229;-67
2023/12/08 04:46:49;;;;;;;13.57;13.07;;;4.20;99.90;;;;;;5074021;28;20219;-69
2023/12/08 04:49:16;;;;;;;14.00;13.50;;;4.20;99.90;;;;;;5071384;28;20207;-67
2023/12/08 04:51:43;;;;;;;13.57;13.07;;;4.30;99.90;;;;;;5073905;28;20210;-67
2023/12/08 04:54:10;;;;;;;13.17;12.67;;;4.30;99.90;;;;;;5076191;28;20294;-67
2023/12/08 04:56:36;;;;;;;13.37;12.87;;;4.40;99.90;;;;;;5078054;28;20234;-69
2023/12/08 04:59:05;;;;;;;13.70;13.20;;;4.50;99.90;;;;;;5076795;28;20211;-67
2023/12/08 05:01:32;;;;;;;12.83;12.43;;;4.50;99.90;;;;;;5075243;28;20226;-68
2023/12/08 05:03:58;;;;;;;13.03;12.53;;;4.60;99.90;;;;;;5075380;28;20229;-67
2023/12/08 05:06:26;;;;;;;13.57;13.07;;;4.60;99.90;;;;;;5075173;28;20257;-68
2023/12/08 05:08:53;;;;;;;13.50;13.00;;;4.70;99.90;;;;;;5074874;28;20624;-69
2023/12/08 05:11:20;;;;;;;13.57;13.07;;;4.70;99.90;;;;;;5074854;28;20203;-67
2023/12/08 05:13:46;;;;;;;13.57;13.07;;;4.80;99.90;;;;;;5075145;28;20218;-67
2023/12/08 05:16:15;;;;;;;13.63;13.13;;;4.90;99.90;;;;;;5074766;28;20235;-66
2023/12/08 05:18:42;;;;;;;13.40;12.90;;;4.90;99.90;;;;;;5075671;28;20206;-69
2023/12/08 05:21:10;;;;;;;13.70;13.20;;;5.00;99.90;;;;;;5075159;28;20231;-68
2023/12/08 05:23:36;;;;;;;13.97;13.47;;;5.10;99.90;;;;;;5075810;28;20211;-68
2023/12/08 05:26:03;;;;;;;13.17;12.67;;;5.20;99.90;;;;;;5075133;28;20245;-68
2023/12/08 05:28:31;;;;;;;13.60;13.10;;;5.30;99.90;;;;;;5074877;28;20665;-69
2023/12/08 05:30:57;;;;;;;12.40;12.00;;;5.40;99.90;;;;;;5075253;28;20203;-69
2023/12/08 05:33:25;;;;;;;13.73;13.23;;;5.50;99.90;;;;;;5074633;28;20207;-68
2023/12/08 05:35:52;;;;;;;13.23;12.73;;;5.60;99.90;;;;;;5074862;28;20612;-69
2023/12/08 05:38:19;;;;;;;13.30;12.80;;;5.60;99.90;;;;;;5074993;28;20586;-68
2023/12/08 05:40:46;;;;;;;14.50;14.00;;;5.70;99.90;;;;;;5074067;28;20211;-68
2023/12/08 05:43:13;;;;;;;13.73;13.23;;;5.80;99.90;;;;;;5074480;28;20234;-68
2023/12/08 05:45:39;;;;;;;14.13;13.63;;;5.80;99.90;;;;;;5074096;28;20241;-68
2023/12/08 05:48:06;;;;;;;13.83;13.33;;;5.80;99.90;;;;;;5074319;28;20302;-69
2023/12/08 05:50:34;;;;;;;14.23;13.73;;;5.90;99.90;;;;;;5074204;28;20356;-68
2023/12/08 05:53:01;;;;;;;13.97;13.47;;;6.00;99.90;;;;;;5074474;28;20222;-69
2023/12/08 05:55:28;;;;;;;14.77;14.17;;;6.00;99.90;;;;;;5074575;28;20239;-68
2023/12/08 05:57:54;;;;;;;15.53;14.93;;;5.90;99.90;;;;;;5073650;28;20242;-67
2023/12/08 06:00:21;;;;;;;16.07;15.40;;;5.70;99.90;;;;;;5074144;28;20211;-67
2023/12/08 06:02:48;;;;;;;14.70;14.20;;;5.40;99.90;;;;;;5073651;28;20259;-67
2023/12/08 06:05:15;;;;;;;16.03;15.37;;;5.20;99.90;;;;;;5073532;28;20218;-67
2023/12/08 06:07:43;;;;;;;15.50;14.90;;;5.00;99.90;;;;;;5072547;28;20302;-68
2023/12/08 06:10:11;;;;;;;15.60;15.00;;;4.70;99.90;;;;;;5074116;28;20211;-69
2023/12/08 06:12:39;;;;;;;14.63;14.07;;;4.70;99.90;;;;;;5073200;28;20203;-68
2023/12/08 06:15:07;;;;;;;14.70;14.17;;;4.80;99.90;;;;;;5073599;28;20218;-69
2023/12/08 06:17:34;;;;;;;14.70;14.10;;;4.80;99.90;;;;;;5073556;28;20593;-68
2023/12/08 06:20:01;;;;;;;14.23;13.70;;;4.80;99.90;;;;;;5073111;28;20649;-66
2023/12/08 06:22:27;;;;;;;13.63;13.13;;;4.90;99.90;;;;;;5077293;28;20223;-68
2023/12/08 06:24:55;;;;;;;15.50;14.90;;;4.90;99.90;;;;;;5084201;28;20629;-67
2023/12/08 06:27:22;;;;;;;15.37;14.77;;;4.80;99.90;;;;;;5074586;28;20234;-68
2023/12/08 06:29:50;;;;;;;14.57;13.97;;;4.80;99.90;;;;;;5073243;28;20214;-68
2023/12/08 06:32:18;;;;;;;14.87;14.27;;;4.80;99.90;;;;;;5073168;28;20215;-67
2023/12/08 06:34:45;;;;;;;15.77;15.17;;;4.90;99.90;;;;;;5074163;28;20711;-69
2023/12/08 06:37:12;;;;;;;15.07;14.47;;;5.00;99.90;;;;;;5073604;28;20227;-67
2023/12/08 06:39:40;;;;;;;15.83;15.23;;;5.00;99.90;;;;;;5073801;28;20222;-64
2023/12/08 06:42:08;;;;;;;15.37;14.77;;;5.00;99.90;;;;;;5073208;28;20293;-67
2023/12/08 06:44:35;;;;;;;15.20;14.60;;;5.10;99.90;;;;;;5073106;28;20235;-66
2023/12/08 06:47:02;;;;;;;15.53;15.00;;;5.30;99.90;;;;;;5073211;28;20227;-67
2023/12/08 06:49:28;;;;;;;17.47;16.87;;;5.40;99.90;;;;;;5072967;28;20302;-66
2023/12/08 06:51:55;;;;;;;17.23;16.63;;;5.60;99.90;;;;;;5073172;28;20215;-64
2023/12/08 06:54:22;;;;;;;16.37;15.77;;;5.70;99.90;;;;;;5072659;28;20210;-65
2023/12/08 06:56:48;;;;;;;16.70;16.10;;;5.80;99.90;;;;;;5072592;28;20571;-68
2023/12/08 06:59:17;;;;;;;15.43;14.83;;;5.90;99.90;;;;;;5072494;28;20214;-67
2023/12/08 07:01:43;;;;;;;17.10;16.50;;;6.00;99.90;;;;;;5072120;28;20600;-65
2023/12/08 07:04:10;;;;;;;17.37;16.77;;;6.10;99.90;;;;;;5072180;28;20226;-65
2023/12/08 07:06:37;;;;;;;16.30;15.70;;;6.20;99.90;;;;;;5072371;28;20292;-68
2023/12/08 07:09:05;;;;;;;16.60;16.00;;;6.20;99.90;;;;;;5071664;28;20230;-66
2023/12/08 07:11:31;;;;;;;15.23;14.73;;;6.30;99.90;;;;;;5072270;28;20211;-66
2023/12/08 07:13:58;;;;;;;15.67;15.07;;;6.40;99.90;;;;;;5070245;28;20195;-67
2023/12/08 07:16:26;;;;;;;15.80;15.20;;;6.40;99.90;;;;;;5071927;28;20247;-65
2023/12/08 07:18:53;;;;;;;15.77;15.20;;;6.40;99.90;;;;;;5071343;28;20214;-67
2023/12/08 07:21:20;;;;;;;15.67;15.10;;;6.50;99.90;;;;;;5071531;28;20222;-66
2023/12/08 07:23:46;;;;;;;15.73;15.13;;;6.50;99.90;;;;;;5071940;28;20241;-68
2023/12/08 07:26:13;;;;;;;16.10;15.50;;;6.60;99.90;;;;;;5071780;28;20581;-67
2023/12/08 07:28:40;;;;;;;14.73;14.23;;;6.60;99.90;;;;;;5071839;28;20261;-66
2023/12/08 07:31:06;;;;;;;15.00;14.50;;;6.70;99.90;;;;;;5071930;28;20211;-66
2023/12/08 07:33:34;;;;;;;15.27;14.77;;;6.70;99.90;;;;;;5072427;28;20231;-65
2023/12/08 07:36:01;;;;;;;14.87;14.37;;;6.80;99.90;;;;;;5072344;28;20226;-68
2023/12/08 07:38:29;;;;;;;14.50;14.00;;;6.80;99.90;;;;;;5072072;28;20210;-67
2023/12/08 07:40:55;;;;;;;14.87;14.37;;;6.90;99.90;;;;;;5072959;28;20269;-67
2023/12/08 07:43:22;;;;;;;14.60;14.10;;;6.90;99.90;;;;;;5073359;28;20238;-66
2023/12/08 07:45:51;;;;;;;14.97;14.47;;;6.90;99.90;;;;;;5072094;28;20322;-66
2023/12/08 07:48:17;;;;;;;15.00;14.40;;;7.00;99.90;;;;;;5072438;28;20225;-65
2023/12/08 07:50:45;;;;;;;14.60;14.10;;;7.00;99.90;;;;;;5071605;28;20211;-66
2023/12/08 07:53:13;;;;;;;14.93;14.43;;;7.10;99.90;;;;;;5071744;28;20244;-65
2023/12/08 07:55:40;;;;;;;15.93;15.33;;;7.10;99.90;;;;;;5071941;28;20309;-67
2023/12/08 07:58:08;;;;;;;14.60;14.10;;;7.10;99.90;;;;;;5072500;28;20211;-67
2023/12/08 08:00:35;;;;;;;14.93;14.43;;;7.20;99.90;;;;;;5073189;28;20211;-66
2023/12/08 08:03:02;;;;;;;14.83;14.33;;;7.20;99.90;;;;;;5072021;28;20220;-66
2023/12/08 08:05:29;;;;;;;15.20;14.70;;;7.20;99.90;;;;;;5073289;28;20272;-66
2023/12/08 08:07:57;;;;;;;14.60;14.10;;;7.20;99.90;;;;;;5074583;28;20238;-66
2023/12/08 08:10:23;;;;;;;14.97;14.47;;;7.30;99.90;;;;;;5065026;28;20689;-65
2023/12/08 08:12:50;;;;;;;15.00;14.40;;;7.30;99.90;;;;;;5072115;28;20210;-65
2023/12/08 08:15:17;;;;;;;15.80;15.20;;;7.30;99.90;;;;;;5072457;28;20325;-65
2023/12/08 08:17:43;;;;;;;15.60;15.10;;;7.30;99.90;;;;;;5072444;28;20605;-66
2023/12/08 08:20:11;;;;;;;15.17;14.67;;;7.30;99.90;;;;;;5072271;28;20233;-66
2023/12/08 08:22:38;;;;;;;14.97;14.47;;;7.40;99.90;;;;;;5072506;28;20227;-65
2023/12/08 08:25:07;;;;;;;15.50;15.00;;;7.40;99.90;;;;;;5072599;28;20218;-66
2023/12/08 08:27:34;;;;;;;15.00;14.50;;;7.50;99.90;;;;;;5072217;28;20669;-66
2023/12/08 08:30:00;;;;;;;14.63;14.13;;;7.50;99.90;;;;;;5076877;28;20210;-66
2023/12/08 08:32:28;;;;;;;14.67;14.17;;;7.50;99.90;;;;;;5071386;28;20222;-65
2023/12/08 08:34:55;;;;;;;15.07;14.57;;;7.60;99.90;;;;;;5071854;28;20207;-67
2023/12/08 08:37:22;;;;;;;14.47;13.97;;;7.60;99.90;;;;;;5071126;28;20258;-65
2023/12/08 08:39:49;;;;;;;15.43;14.93;;;7.60;99.90;;;;;;5070983;28;20210;-65
2023/12/08 08:42:17;;;;;;;15.00;14.50;;;7.60;99.90;;;;;;5070984;28;20227;-66
2023/12/08 08:44:43;;;;;;;14.80;14.30;;;7.70;99.90;;;;;;5074853;28;20210;-67
2023/12/08 08:47:11;;;;;;;14.87;14.37;;;7.70;99.90;;;;;;5071594;28;20219;-66
2023/12/08 08:49:37;;;;;;;14.77;14.27;;;7.70;99.90;;;;;;5071019;28;20257;-65
2023/12/08 08:52:05;;;;;;;15.70;15.17;;;7.80;99.90;;;;;;5071135;28;20214;-66
2023/12/08 08:54:31;;;;;;;14.67;14.17;;;7.80;99.90;;;;;;5070499;28;20841;-66
2023/12/08 08:56:58;;;;;;;14.13;13.63;;;7.90;99.90;;;;;;5070667;28;20237;-66
2023/12/08 08:59:26;;;;;;;14.47;13.97;;;7.90;99.90;;;;;;5070757;28;20226;-67
2023/12/08 09:01:53;;;;;;;15.40;14.90;;;7.90;99.90;;;;;;5070609;28;20579;-65
2023/12/08 09:04:19;;;;;;;13.90;13.40;;;7.90;99.90;;;;;;5070932;28;20215;-67
2023/12/08 09:06:46;;;;;;;14.60;14.10;;;8.00;99.90;;;;;;5070685;28;20622;-66
2023/12/08 09:09:13;;;;;;;15.67;15.17;;;7.90;99.90;;;;;;5071203;28;20208;-65
2023/12/08 09:11:41;;;;;;;20.47;19.57;;;8.00;99.90;;;;;;5069554;28;20212;-64
2023/12/08 09:14:08;;;;;;;15.97;15.37;;;7.90;99.90;;;;;;5069351;28;20249;-65
2023/12/08 09:16:36;;;;;;;15.60;15.03;;;8.00;99.90;;;;;;5070995;28;20250;-65
2023/12/08 09:19:03;;;;;;;16.00;15.40;;;8.00;99.90;;;;;;5071006;28;20203;-66
2023/12/08 09:21:30;;;;;;;14.33;13.83;;;8.00;99.90;;;;;;5071960;28;20246;-64
2023/12/08 09:23:57;;;;;;;15.47;14.87;;;8.00;99.90;;;;;;5072885;28;20235;-67
2023/12/08 09:26:29;;;;;;;15.80;15.20;;;8.00;99.90;;;;;;5076444;28;20223;-65
2023/12/08 09:28:57;;;;;;;15.50;15.00;;;8.00;99.90;;;;;;5076159;28;20225;-67
2023/12/08 09:31:24;;;;;;;16.87;16.27;;;8.10;99.90;;;;;;5073059;28;20211;-64
2023/12/08 09:33:56;;;;;;;15.70;15.17;;;8.10;99.90;;;;;;5071018;28;20283;-66
2023/12/08 09:36:23;;;;;;;14.77;14.27;;;8.10;99.90;;;;;;5073085;28;20674;-63
2023/12/08 09:38:50;;;;;;;16.10;15.50;;;8.20;99.90;;;;;;5071051;28;20215;-62
2023/12/08 09:41:18;;;;;;;15.23;14.63;;;8.10;99.90;;;;;;5071263;28;20667;-67
2023/12/08 09:43:55;;;;;;;16.10;15.50;;;8.00;99.90;;;;;;5077444;28;20573;-64
2023/12/08 09:46:23;;;;;;;15.70;15.10;;;7.70;99.90;;;;;;5085752;28;20227;-64
2023/12/08 09:48:58;;;;;;;15.93;15.33;;;7.60;99.90;;;;;;5081300;28;20219;-63
2023/12/08 09:51:25;;;;;;;16.37;15.77;;;7.40;99.90;;;;;;5081941;28;20206;-63
2023/12/08 09:53:52;;;;;;;15.53;14.93;;;7.30;99.90;;;;;;5082788;28;20211;-64
2023/12/08 09:56:20;;;;;;;17.00;16.30;;;7.20;99.90;;;;;;5079161;28;20227;-65
2023/12/08 09:58:48;;;;;;;16.43;15.83;;;7.20;99.90;;;;;;5074872;28;20212;-63
2023/12/08 10:01:16;;;;;;;15.33;14.73;;;7.20;99.90;;;;;;5075595;28;20207;-65
2023/12/08 10:03:44;;;;;;;15.30;14.70;;;7.20;99.90;;;;;;5076343;28;20578;-64
2023/12/08 10:06:13;;;;;;;15.30;14.70;;;7.40;99.90;;;;;;5075591;28;20231;-64
2023/12/08 10:08:40;;;;;;;15.10;14.50;;;7.40;99.90;;;;;;5074623;28;20211;-67
2023/12/08 10:11:07;;;;;;;14.63;14.13;;;7.50;99.90;;;;;;5075721;28;20215;-63
2023/12/08 10:13:33;;;;;;;15.60;15.00;;;7.60;99.90;;;;;;5077765;28;20211;-64
2023/12/08 10:16:00;;;;;;;15.60;15.00;;;7.60;99.90;;;;;;5079138;28;20651;-63
2023/12/08 10:18:28;;;;;;;15.17;14.57;;;7.60;99.90;;;;;;5076929;28;20274;-65
2023/12/08 10:21:15;;;;;;;15.80;15.20;;;7.70;99.90;;;;;;5075176;28;20281;-64
2023/12/08 10:23:42;;;;;;;15.50;14.90;;;7.70;99.90;;;;;;5075555;28;20292;-65
2023/12/08 10:26:09;;;;;;;15.57;14.97;;;7.80;99.90;;;;;;5075326;28;20243;-66
2023/12/08 10:28:36;;;;;;;15.37;14.77;;;7.80;99.90;;;;;;5074729;28;20618;-66
2023/12/08 10:31:04;;;;;;;16.30;15.70;;;7.80;99.90;;;;;;5073617;28;20693;-65
2023/12/08 10:33:31;;;;;;;15.13;14.53;;;7.90;99.90;;;;;;5073148;28;20211;-65
2023/12/08 10:35:58;;;;;;;15.07;14.47;;;7.90;99.90;;;;;;5072393;28;20281;-64
2023/12/08 10:38:26;;;;;;;18.60;17.90;;;7.90;99.90;;;;;;5074354;28;20207;-64
2023/12/08 10:40:53;;;;;;;16.17;15.57;;;8.00;99.90;;;;;;5072597;28;20211;-66
2023/12/08 10:43:25;;;;;;;16.40;15.80;;;7.90;99.90;;;;;;5073441;28;20234;-64
2023/12/08 10:45:52;;;;;;;15.73;15.13;;;7.80;99.90;;;;;;5073591;28;20238;-65
2023/12/08 10:48:20;;;;;;;15.50;14.90;;;7.80;99.90;;;;;;5073299;28;20218;-66
2023/12/08 10:50:48;;;;;;;15.77;15.17;;;7.90;99.90;;;;;;5072834;28;20287;-65
2023/12/08 10:53:17;;;;;;;15.80;15.20;;;7.90;99.90;;;;;;5072322;28;20220;-64
2023/12/08 10:55:47;;;;;;;15.57;14.97;;;7.90;99.90;;;;;;5073240;28;20227;-64
2023/12/08 10:58:16;;;;;;;15.10;14.53;;;7.90;99.90;;;;;;5073272;28;20302;-65
2023/12/08 11:00:44;;;;;;;16.50;15.90;;;7.90;99.90;;;;;;5073033;28;20233;-64
2023/12/08 11:03:15;;;;;;;16.33;15.73;;;7.90;99.90;;;;;;5073593;28;20234;-63
2023/12/08 11:05:47;;;;;;;15.30;14.70;;;7.90;99.90;;;;;;5073073;28;20231;-65
2023/12/08 11:08:17;;;;;;;14.90;14.40;;;8.00;99.90;;;;;;5072624;28;20233;-63
2023/12/08 11:10:50;;;;;;;15.23;14.63;;;8.10;99.90;;;;;;5073380;28;20661;-65
2023/12/08 11:13:25;;;;;;;15.97;15.37;;;8.10;99.90;;;;;;5074767;28;20214;-64
2023/12/08 11:16:06;;;;;;;14.83;14.33;;;8.10;99.90;;;;;;5072761;28;20249;-64
2023/12/08 11:18:36;;;;;;;15.07;14.47;;;8.20;99.90;;;;;;5072397;28;20203;-65
2023/12/08 11:21:04;;;;;;;15.13;14.53;;;8.20;99.90;;;;;;5072453;28;20290;-65
2023/12/08 11:23:31;;;;;;;15.50;14.90;;;8.30;99.90;;;;;;5072703;28;20235;-65
2023/12/08 11:26:08;;;;;;;16.57;15.90;;;8.40;99.90;;;;;;5072986;28;20226;-65
2023/12/08 11:28:42;;;;;;;14.97;14.37;;;8.40;99.90;;;;;;5083036;28;20203;-65
2023/12/08 11:31:17;;;;;;;15.33;14.73;;;8.40;99.90;;;;;;5078823;28;20219;-65
2023/12/08 11:33:52;;;;;;;15.70;15.10;;;8.40;99.90;;;;;;5083178;28;20218;-65
2023/12/08 11:36:19;;;;;;;16.93;16.23;;;8.40;99.90;;;;;;5076128;28;20233;-63
2023/12/08 11:38:45;;;;;;;16.53;15.93;;;8.40;99.90;;;;;;5075453;28;20214;-65
2023/12/08 11:41:16;;;;;;;16.27;15.67;;;8.40;99.90;;;;;;5072933;28;20306;-65
2023/12/08 11:43:43;;;;;;;15.73;15.13;;;8.40;99.90;;;;;;5072253;28;20231;-65
2023/12/08 11:46:10;;;;;;;16.47;15.87;;;8.50;99.90;;;;;;5071958;28;20228;-65
2023/12/08 11:48:37;;;;;;;15.83;15.23;;;8.40;99.90;;;;;;5072384;28;20248;-64
2023/12/08 11:51:05;;;;;;;16.07;15.47;;;8.40;99.90;;;;;;5072362;28;20218;-64
2023/12/08 11:53:47;;;;;;;15.70;15.10;;;8.40;99.90;;;;;;5072570;28;20302;-66
2023/12/08 11:56:38;;;;;;;15.27;14.67;;;8.50;99.90;;;;;;5072869;28;20230;-64
2023/12/08 11:59:05;;;;;;;16.00;15.40;;;8.60;99.90;;;;;;5072097;28;20724;-64
2023/12/08 12:01:31;;;;;;;15.27;14.67;;;8.60;99.90;;;;;;5072191;28;20218;-64
2023/12/08 12:03:58;;;;;;;16.23;15.63;;;8.60;99.90;;;;;;5071718;28;20219;-65
2023/12/08 12:06:28;;;;;;;16.37;15.77;;;8.60;99.90;;;;;;5072601;28;20348;-65
2023/12/08 12:08:56;;;;;;;16.80;16.10;;;8.70;99.90;;;;;;5071860;28;20211;-64
2023/12/08 12:11:27;;;;;;;16.30;15.70;;;8.70;99.90;;;;;;5071589;28;20855;-64
2023/12/08 12:14:00;;;;;;;16.87;16.17;;;8.60;99.90;;;;;;5071786;28;20658;-65
2023/12/08 12:16:27;;;;;;;15.77;15.17;;;8.60;99.90;;;;;;5071693;28;20230;-65
2023/12/08 12:18:54;;;;;;;17.00;16.37;;;8.70;99.90;;;;;;5071625;28;20239;-65
2023/12/08 12:21:21;;;;;;;16.47;15.87;;;8.70;99.90;;;;;;5071195;28;20215;-65
2023/12/08 12:23:47;;;;;;;16.80;16.20;;;8.70;99.90;;;;;;5071057;28;20926;-66
2023/12/08 12:26:15;;;;;;;17.43;16.73;;;8.60;99.90;;;;;;5070978;28;20227;-65
2023/12/08 12:28:42;;;;;;;16.13;15.53;;;8.70;99.90;;;;;;5071281;28;20290;-65
2023/12/08 12:31:10;;;;;;;16.67;15.97;;;8.70;99.90;;;;;;5071123;28;20211;-65
2023/12/08 12:33:37;;;;;;;16.10;15.50;;;8.80;99.90;;;;;;5071246;28;20203;-64
2023/12/08 12:36:05;;;;;;;16.30;15.70;;;8.90;99.90;;;;;;5071057;28;20231;-65
2023/12/08 12:38:32;;;;;;;16.10;15.50;;;8.90;99.90;;;;;;5071405;28;20211;-65